Flag Lama — V7QE5 — position and weather

sailwx.info

Track history (hours):
 
Tides and Currents Weather Stations Pressure Air Temp Water Temp Dewpoint Dewpoint Depression Visibility Wind Speed Wind Dir Waves Ship Positions

Flag Lama

Last reported at 2017-May-18 11:26 UTC. Time now 2017-May-24 19:41 UTC.
Position N 34°47' E 124°49'.

Length 229 m; draft 5.3 m.

Type: Cargo ship. MMSI: 538006963.

Date/timePositionNaut miles runAvg speedWind from/ knotsBaromVisibWave heightAir tempDewpointWater temp
2017-May-18 11:26N 34°47' E 124°49'6 7.8
2017-May-18 10:40N 34°52' E 124°45'1 7.8
2017-May-18 10:30N 34°53' E 124°45'4 7.7
2017-May-18 10:00N 34°56' E 124°42'4 7.5
2017-May-18 09:28N 34°60' E 124°40'4 7.4
2017-May-18 09:00N 35°03' E 124°38'4 7.4
2017-May-18 08:24N 35°07' E 124°35'11 7.4
2017-May-18 06:54N 35°16' E 124°28'3 7.5
2017-May-18 06:29N 35°19' E 124°26'6 9.4
2017-May-18 05:51N 35°24' E 124°22'612.1
2017-May-18 05:21N 35°29' E 124°18'16311.9
2017-May-17 15:41N 37°48' E 122°33'2112.3
2017-May-17 14:00N 38°06' E 122°20'2412.2
2017-May-17 11:59N 38°27' E 122°03'611.5
2017-May-17 11:30N 38°32' E 121°60'612.1
2017-May-17 11:00N 38°37' E 121°56'612.2
2017-May-17 10:30N 38°42' E 121°51'510.1
2017-May-17 10:00N 38°46' E 121°47'510.0
2017-May-17 09:30N 38°51' E 121°45'8 8.0
2017-May-17 08:32N 38°58' E 121°43'0 7.6
2017-May-17 08:30N 38°58' E 121°43'2 1.8
2017-May-17 07:07N 39°00' E 121°41'0 0.0
2017-May-17 06:52N 39°00' E 121°41'0 0.0
2017-May-16 21:55N 39°00' E 121°41'0 0.0
2017-May-16 21:07N 39°00' E 121°41'0 0.0
2017-May-16 20:13N 39°00' E 121°41'0 0.0
2017-May-16 14:46N 39°00' E 121°41'  
Track history (hours):
 
Tides and Currents Weather Stations Pressure Air Temp Water Temp Dewpoint Dewpoint Depression Visibility Wind Speed Wind Dir Waves Ship Positions

Flag Lama

Last reported at 2017-May-18 11:26 UTC. Time now 2017-May-24 19:41 UTC.
Position N 34°47' E 124°49'.

Length 229 m; draft 5.3 m.

Type: Cargo ship. MMSI: 538006963.

Date/timePositionNaut miles runAvg speedWind from/ knotsBaromVisibWave heightAir tempDewpointWater temp
2017-May-18 11:26N 34°47' E 124°49'6 7.8
2017-May-18 10:40N 34°52' E 124°45'1 7.8
2017-May-18 10:30N 34°53' E 124°45'4 7.7
2017-May-18 10:00N 34°56' E 124°42'4 7.5
2017-May-18 09:28N 34°60' E 124°40'4 7.4
2017-May-18 09:00N 35°03' E 124°38'4 7.4
2017-May-18 08:24N 35°07' E 124°35'11 7.4
2017-May-18 06:54N 35°16' E 124°28'3 7.5
2017-May-18 06:29N 35°19' E 124°26'6 9.4
2017-May-18 05:51N 35°24' E 124°22'612.1
2017-May-18 05:21N 35°29' E 124°18'16311.9
2017-May-17 15:41N 37°48' E 122°33'2112.3
2017-May-17 14:00N 38°06' E 122°20'2412.2
2017-May-17 11:59N 38°27' E 122°03'611.5
2017-May-17 11:30N 38°32' E 121°60'612.1
2017-May-17 11:00N 38°37' E 121°56'612.2
2017-May-17 10:30N 38°42' E 121°51'510.1
2017-May-17 10:00N 38°46' E 121°47'510.0
2017-May-17 09:30N 38°51' E 121°45'8 8.0
2017-May-17 08:32N 38°58' E 121°43'0 7.6
2017-May-17 08:30N 38°58' E 121°43'2 1.8
2017-May-17 07:07N 39°00' E 121°41'0 0.0
2017-May-17 06:52N 39°00' E 121°41'0 0.0
2017-May-16 21:55N 39°00' E 121°41'0 0.0
2017-May-16 21:07N 39°00' E 121°41'0 0.0
2017-May-16 20:13N 39°00' E 121°41'0 0.0
2017-May-16 14:46N 39°00' E 121°41'  

Dump ship's entire track history